Impacts TAF Board
For situational awareness. Not to be used for flight planning purposes.
IDs:

KHOB - Hobbs Arpt, NM, US

Issued at 2320 UTC 28 Nov 2020
Updated at 0242 UTC 29 Nov 2020
Potential Impact None Slight Moderate High
Time<<29/15Z 29/16Z 29/17Z 29/18Z 29/19Z 29/20Z 29/21Z 29/22Z 29/23Z 30/00Z 30/01Z 30/02Z 30/03Z>>
Type PRVL PRVL PRVL PRVL PRVL PRVL PRVL PRVL PRVL
VIS >6 >6 >6 >6 >6 >6 >6 >6 >6
CIG -- -- -- -- -- -- -- -- --
Cover SKC SKC SKC SKC SKC SKC SKC SKC SKC
FltCat VFR VFR VFR VFR VFR VFR VFR VFR VFR
WX -- -- -- -- -- -- -- -- --
WDir 340 340 340 340 340 340 340 340 340
WSpd 15 15 15 15 15 15 15 15 15
WGst 24 24 24 24 24 24 24 24 24
Raw TAF
KHOB 282320Z 2900/2924 28011KT P6SM SKC
  FM291500 34015G24KT P6SM SKC


METAR Board
Radar Display
Forecast Discussion
For situational awareness. Not to be used for flight planning purposes.